createdAt,value
2022-11-17T00:02:34.525Z,70.19
2022-11-17T00:06:07.017Z,70.23
2022-11-17T00:09:34.517Z,70.59
2022-11-17T00:13:19.866Z,70.47
2022-11-17T00:16:53.282Z,70.34
2022-11-17T00:20:51.042Z,70.13
2022-11-17T00:24:29.551Z,69.90
2022-11-17T00:27:57.029Z,69.71
2022-11-17T00:31:42.842Z,69.77
2022-11-17T00:35:11.134Z,69.91
2022-11-17T00:38:38.839Z,69.99
2022-11-17T00:42:06.572Z,69.98
2022-11-17T00:45:34.223Z,69.86
2022-11-17T00:49:01.657Z,70.08
2022-11-17T00:52:29.401Z,69.92
2022-11-17T00:55:57.807Z,69.84
2022-11-17T00:59:25.510Z,69.71
2022-11-17T01:02:52.872Z,69.78
2022-11-17T01:06:22.117Z,69.76
2022-11-17T01:09:49.608Z,69.65
2022-11-17T01:13:18.814Z,69.69
2022-11-17T01:16:47.137Z,70.05
2022-11-17T01:20:16.028Z,69.85
2022-11-17T01:23:47.009Z,69.65
2022-11-17T01:27:15.427Z,69.71
2022-11-17T01:31:37.521Z,69.70
2022-11-17T01:35:07.033Z,69.33
2022-11-17T01:38:34.954Z,69.20
2022-11-17T01:42:07.850Z,69.54
2022-11-17T01:45:35.753Z,69.31
2022-11-17T01:49:08.620Z,69.55
2022-11-17T01:52:39.783Z,69.39
2022-11-17T01:56:13.319Z,69.16
2022-11-17T01:59:44.051Z,69.46
2022-11-17T02:03:11.540Z,69.39
2022-11-17T02:06:39.923Z,69.15
2022-11-17T02:10:08.519Z,68.95
2022-11-17T02:13:38.941Z,69.25
2022-11-17T02:17:13.744Z,69.05
2022-11-17T02:21:03.116Z,69.21
2022-11-17T02:25:00.792Z,69.27
2022-11-17T02:28:31.117Z,69.05
2022-11-17T02:32:06.361Z,69.30
2022-11-17T02:35:42.307Z,69.15
2022-11-17T02:39:15.876Z,69.14
2022-11-17T02:43:04.211Z,69.45
2022-11-17T02:46:33.879Z,68.97
2022-11-17T02:50:07.046Z,69.22
2022-11-17T02:53:35.285Z,69.48
2022-11-17T02:57:02.663Z,69.30
2022-11-17T03:00:33.364Z,69.32
2022-11-17T03:04:16.825Z,69.28
2022-11-17T03:08:06.696Z,69.23
2022-11-17T03:11:41.839Z,69.07
2022-11-17T03:15:20.809Z,68.98
2022-11-17T03:19:00.319Z,69.14
2022-11-17T03:22:32.029Z,68.67
2022-11-17T03:26:02.902Z,68.98
2022-11-17T03:29:34.000Z,69.06
2022-11-17T03:33:08.315Z,68.90
2022-11-17T03:36:38.128Z,68.95
2022-11-17T03:40:09.197Z,68.92
2022-11-17T03:43:36.580Z,68.97
2022-11-17T03:47:21.860Z,69.00
2022-11-17T03:50:53.779Z,68.72
2022-11-17T03:54:20.821Z,68.84
2022-11-17T03:57:55.160Z,68.76
2022-11-17T04:01:24.150Z,69.05
2022-11-17T04:05:09.471Z,68.84
2022-11-17T04:08:36.226Z,69.12
2022-11-17T04:12:20.286Z,69.05
2022-11-17T04:15:59.522Z,68.68
2022-11-17T04:19:26.474Z,68.85
2022-11-17T04:23:07.246Z,69.07
2022-11-17T04:26:51.798Z,69.02
2022-11-17T04:30:18.990Z,68.99
2022-11-17T04:33:50.334Z,69.13
2022-11-17T04:37:18.868Z,69.02
2022-11-17T04:41:05.298Z,69.22
2022-11-17T04:44:33.813Z,69.07
2022-11-17T04:48:00.840Z,68.89
2022-11-17T04:51:29.069Z,69.09
2022-11-17T04:54:55.672Z,69.02
2022-11-17T04:58:22.308Z,68.91
2022-11-17T05:01:49.461Z,68.93
2022-11-17T05:05:16.508Z,69.01
2022-11-17T05:08:43.657Z,69.06
2022-11-17T05:12:29.515Z,69.12
2022-11-17T05:16:18.709Z,69.00
2022-11-17T05:19:47.078Z,69.12
2022-11-17T05:23:36.965Z,68.91
2022-11-17T05:27:04.737Z,69.23
2022-11-17T05:30:31.642Z,69.01
2022-11-17T05:33:58.941Z,69.17
2022-11-17T05:37:25.526Z,69.07
2022-11-17T05:40:52.035Z,69.18
2022-11-17T05:44:18.985Z,69.38
2022-11-17T05:47:45.776Z,69.17
2022-11-17T05:51:13.376Z,69.32
2022-11-17T05:54:40.565Z,69.43
2022-11-17T05:58:40.725Z,69.42
2022-11-17T06:02:09.669Z,69.42
2022-11-17T06:05:40.073Z,69.33
2022-11-17T06:09:07.267Z,69.19
2022-11-17T06:12:33.913Z,69.24
2022-11-17T06:16:04.260Z,69.23
2022-11-17T06:19:40.789Z,69.26
2022-11-17T06:23:09.845Z,69.17
2022-11-17T06:26:37.185Z,69.21
2022-11-17T06:30:06.084Z,69.31
2022-11-17T06:33:37.769Z,69.18
2022-11-17T06:37:04.217Z,69.04
2022-11-17T06:40:31.031Z,69.17
2022-11-17T06:43:57.833Z,69.15
2022-11-17T06:47:24.462Z,69.38
2022-11-17T06:50:51.445Z,69.18
2022-11-17T06:54:17.887Z,69.31
2022-11-17T06:57:50.337Z,69.22
2022-11-17T07:01:19.777Z,69.21
2022-11-17T07:04:46.503Z,69.22
2022-11-17T07:08:14.633Z,69.27
2022-11-17T07:11:41.183Z,69.32
2022-11-17T07:15:10.894Z,69.35
2022-11-17T07:18:38.783Z,69.39
2022-11-17T07:22:06.481Z,69.56
2022-11-17T07:25:32.989Z,69.46
2022-11-17T07:29:00.233Z,69.22
2022-11-17T07:32:27.235Z,69.25
2022-11-17T07:35:55.283Z,69.37
2022-11-17T07:39:22.104Z,69.28
2022-11-17T07:42:52.837Z,69.38
2022-11-17T07:46:19.710Z,69.27
2022-11-17T07:49:47.006Z,69.49
2022-11-17T07:53:14.469Z,69.27
2022-11-17T07:56:42.505Z,69.39
2022-11-17T08:00:11.392Z,69.45
2022-11-17T08:03:41.489Z,69.56
2022-11-17T08:07:08.185Z,69.52
2022-11-17T08:10:37.948Z,69.42
2022-11-17T08:14:04.427Z,69.35
2022-11-17T08:17:32.329Z,69.33
2022-11-17T08:21:05.564Z,69.29
2022-11-17T08:24:32.337Z,69.49
2022-11-17T08:28:00.073Z,69.46
2022-11-17T08:31:27.320Z,69.60
2022-11-17T08:34:54.542Z,69.66
2022-11-17T08:38:21.027Z,69.92
2022-11-17T08:41:47.574Z,69.68
2022-11-17T08:45:15.006Z,69.73
2022-11-17T08:48:41.690Z,70.04
2022-11-17T08:52:08.784Z,69.76
2022-11-17T08:55:41.382Z,69.75
2022-11-17T08:59:09.697Z,69.78
2022-11-17T09:02:36.697Z,69.56
2022-11-17T09:06:04.848Z,69.64
2022-11-17T09:09:33.260Z,69.65
2022-11-17T09:13:00.245Z,69.27
2022-11-17T09:16:27.135Z,69.64
2022-11-17T09:19:53.812Z,69.54
2022-11-17T09:23:21.915Z,69.58
2022-11-17T09:26:51.884Z,69.61
2022-11-17T09:30:22.414Z,69.52
2022-11-17T09:33:50.286Z,69.63
2022-11-17T09:37:21.747Z,69.58
2022-11-17T09:40:48.877Z,69.48
2022-11-17T09:44:35.268Z,69.61
2022-11-17T09:48:39.427Z,69.55
2022-11-17T09:52:01.895Z,69.52
2022-11-17T09:55:34.693Z,69.27
2022-11-17T09:59:12.264Z,69.36
2022-11-17T10:02:42.702Z,69.51
2022-11-17T10:06:15.380Z,69.69
2022-11-17T10:09:45.854Z,69.63
2022-11-17T10:13:21.218Z,69.28
2022-11-17T10:16:54.833Z,69.33
2022-11-17T10:20:20.391Z,69.28
2022-11-17T10:23:57.144Z,69.01
2022-11-17T10:27:26.074Z,68.92
2022-11-17T10:31:00.358Z,68.37
2022-11-17T10:34:41.616Z,68.47
2022-11-17T10:38:15.455Z,68.54
2022-11-17T10:41:50.866Z,68.32
2022-11-17T10:45:21.181Z,68.36
2022-11-17T10:49:00.944Z,68.55
2022-11-17T10:52:27.895Z,68.47
2022-11-17T10:56:02.434Z,68.57
2022-11-17T10:59:43.126Z,68.19
2022-11-17T11:03:23.979Z,68.44
2022-11-17T11:07:13.344Z,68.12
2022-11-17T11:10:40.410Z,67.92
2022-11-17T11:14:32.118Z,68.04
2022-11-17T11:18:00.342Z,67.85
2022-11-17T11:21:47.723Z,68.00
2022-11-17T11:25:28.268Z,67.92
2022-11-17T11:29:11.951Z,67.73
2022-11-17T11:32:52.667Z,67.50
2022-11-17T11:36:37.662Z,67.98
2022-11-17T11:40:12.111Z,67.73
2022-11-17T11:43:48.387Z,67.55
2022-11-17T11:47:29.126Z,67.73
2022-11-17T11:51:01.944Z,67.65
2022-11-17T11:54:40.527Z,67.65
2022-11-17T11:58:16.839Z,67.61
2022-11-17T12:01:57.286Z,67.82
2022-11-17T12:05:32.289Z,67.62
2022-11-17T12:09:08.620Z,67.49
2022-11-17T12:12:38.180Z,67.45
2022-11-17T12:16:28.565Z,67.18
2022-11-17T12:19:59.530Z,67.24
2022-11-17T12:23:48.251Z,67.24
2022-11-17T12:27:43.410Z,67.22
2022-11-17T12:31:13.226Z,67.43
2022-11-17T12:34:41.606Z,67.15
2022-11-17T12:38:43.131Z,67.15
2022-11-17T12:42:11.994Z,67.25
2022-11-17T12:46:03.759Z,67.19
2022-11-17T12:49:41.060Z,67.08
2022-11-17T12:53:26.388Z,67.18
2022-11-17T12:57:04.778Z,67.16
2022-11-17T13:00:36.404Z,66.94
2022-11-17T13:04:09.677Z,67.01
2022-11-17T13:07:38.126Z,66.87
2022-11-17T13:11:15.423Z,66.97
2022-11-17T13:14:56.877Z,67.03
2022-11-17T13:18:34.338Z,66.94
2022-11-17T13:22:04.892Z,67.14
2022-11-17T13:25:32.971Z,67.28
2022-11-17T13:29:12.822Z,67.12
2022-11-17T13:32:42.288Z,66.85
2022-11-17T13:36:20.422Z,67.06
2022-11-17T13:39:58.888Z,66.99
2022-11-17T13:43:31.698Z,66.94
2022-11-17T13:47:20.817Z,67.03
2022-11-17T13:50:49.216Z,66.95
2022-11-17T13:54:19.447Z,66.70
2022-11-17T13:57:58.859Z,66.94
2022-11-17T14:01:29.150Z,66.76
2022-11-17T14:05:24.199Z,66.69
2022-11-17T14:09:07.734Z,66.85
2022-11-17T14:12:37.334Z,67.01
2022-11-17T14:16:04.960Z,66.85
2022-11-17T14:19:51.344Z,66.89
2022-11-17T14:23:22.431Z,66.98
2022-11-17T14:26:49.735Z,66.74
2022-11-17T14:30:19.752Z,66.83
2022-11-17T14:33:47.122Z,66.90
2022-11-17T14:37:14.078Z,66.69
2022-11-17T14:40:41.314Z,66.61
2022-11-17T14:44:08.438Z,66.73
2022-11-17T14:47:35.329Z,66.70
2022-11-17T14:51:03.211Z,66.92
2022-11-17T14:54:30.518Z,67.02
2022-11-17T14:57:57.806Z,66.88
2022-11-17T15:01:30.923Z,66.78
2022-11-17T15:05:00.235Z,66.53
2022-11-17T15:08:29.016Z,66.83
2022-11-17T15:11:57.056Z,66.73
2022-11-17T15:15:24.105Z,66.86
2022-11-17T15:18:51.338Z,66.88
2022-11-17T15:22:19.449Z,66.83
2022-11-17T15:25:55.403Z,66.75
2022-11-17T15:29:24.037Z,66.85
2022-11-17T15:32:52.808Z,66.79
2022-11-17T15:36:21.792Z,66.83
2022-11-17T15:39:49.284Z,66.76
2022-11-17T15:43:17.518Z,66.80
2022-11-17T15:46:47.876Z,66.92
2022-11-17T15:50:16.865Z,66.88
2022-11-17T15:53:51.358Z,67.07
2022-11-17T15:57:31.914Z,66.96
2022-11-17T16:01:10.894Z,67.12
2022-11-17T16:04:38.306Z,67.14
2022-11-17T16:08:12.464Z,67.15
2022-11-17T16:11:42.514Z,66.91
2022-11-17T16:15:17.673Z,66.60
2022-11-17T16:18:46.209Z,66.58
2022-11-17T16:22:15.187Z,66.80
2022-11-17T16:25:47.563Z,66.65
2022-11-17T16:29:15.960Z,66.83
2022-11-17T16:32:44.519Z,66.73
2022-11-17T16:36:14.233Z,66.85
2022-11-17T16:39:46.774Z,66.82
2022-11-17T16:43:15.973Z,66.83
2022-11-17T16:46:47.737Z,66.69
2022-11-17T16:50:16.267Z,66.71
2022-11-17T16:53:43.572Z,66.65
2022-11-17T16:57:10.719Z,66.75
2022-11-17T17:00:38.024Z,66.93
2022-11-17T17:04:14.418Z,67.05
2022-11-17T17:07:52.261Z,67.04
2022-11-17T17:11:20.438Z,67.13
2022-11-17T17:14:48.420Z,66.96
2022-11-17T17:18:15.938Z,67.08
2022-11-17T17:21:46.624Z,67.09
2022-11-17T17:25:17.222Z,67.09
2022-11-17T17:28:45.129Z,67.08
2022-11-17T17:32:11.984Z,67.32
2022-11-17T17:35:41.596Z,67.43
2022-11-17T17:39:25.109Z,67.56
2022-11-17T17:42:55.622Z,67.66
2022-11-17T17:46:38.751Z,67.66
2022-11-17T17:50:06.424Z,67.85
2022-11-17T17:53:35.392Z,67.90
2022-11-17T17:57:07.686Z,67.97
2022-11-17T18:00:41.231Z,67.87
2022-11-17T18:04:16.292Z,67.97
2022-11-17T18:07:54.362Z,68.09
2022-11-17T18:11:27.176Z,68.09
2022-11-17T18:14:54.894Z,68.00
2022-11-17T18:18:24.890Z,68.10
2022-11-17T18:21:58.523Z,68.02
2022-11-17T18:25:29.728Z,67.91
2022-11-17T18:29:01.228Z,68.02
2022-11-17T18:32:32.691Z,68.05
2022-11-17T18:36:05.909Z,67.92
2022-11-17T18:39:33.908Z,67.89
2022-11-17T18:43:03.193Z,68.12
2022-11-17T18:46:32.205Z,68.02
2022-11-17T18:50:02.295Z,68.18
2022-11-17T18:53:35.352Z,68.05
2022-11-17T18:57:03.565Z,68.08
2022-11-17T19:00:40.382Z,68.08
2022-11-17T19:04:07.878Z,68.19
2022-11-17T19:07:38.553Z,68.31
2022-11-17T19:11:11.970Z,68.34
2022-11-17T19:14:38.913Z,68.51
2022-11-17T19:18:08.980Z,68.58
2022-11-17T19:21:38.996Z,68.67
2022-11-17T19:25:16.771Z,68.63
2022-11-17T19:28:50.887Z,68.48
2022-11-17T19:32:17.674Z,68.40
2022-11-17T19:35:46.781Z,68.15
2022-11-17T19:39:20.479Z,68.13
2022-11-17T19:42:50.873Z,68.19
2022-11-17T19:46:21.857Z,68.08
2022-11-17T19:49:48.424Z,67.94
2022-11-17T19:53:20.995Z,67.70
2022-11-17T19:56:49.641Z,67.70
2022-11-17T20:00:23.270Z,67.78
2022-11-17T20:03:50.531Z,67.76
2022-11-17T20:07:17.957Z,67.78
2022-11-17T20:10:44.724Z,67.87
2022-11-17T20:14:12.668Z,67.83
2022-11-17T20:17:41.010Z,67.69
2022-11-17T20:21:14.473Z,67.99
2022-11-17T20:24:41.806Z,67.84
2022-11-17T20:28:09.914Z,67.82
2022-11-17T20:31:38.912Z,67.83
2022-11-17T20:35:08.017Z,67.91
2022-11-17T20:38:36.505Z,67.80
2022-11-17T20:42:03.324Z,67.80
2022-11-17T20:45:30.620Z,67.90
2022-11-17T20:48:57.504Z,67.96
2022-11-17T20:52:26.608Z,67.90
2022-11-17T20:56:07.578Z,67.89
2022-11-17T20:59:37.162Z,68.10
2022-11-17T21:03:08.582Z,68.03
2022-11-17T21:06:38.403Z,68.01
2022-11-17T21:10:05.327Z,68.10
2022-11-17T21:13:39.057Z,67.99
2022-11-17T21:17:27.270Z,68.01
2022-11-17T21:20:59.765Z,67.96
2022-11-17T21:24:36.978Z,67.88
2022-11-17T21:28:07.016Z,67.90
2022-11-17T21:31:36.046Z,67.97
2022-11-17T21:35:10.510Z,68.04
2022-11-17T21:38:46.026Z,67.97
2022-11-17T21:42:17.027Z,67.84
2022-11-17T21:45:47.787Z,67.80
2022-11-17T21:49:20.252Z,67.78
2022-11-17T21:52:52.552Z,67.97
2022-11-17T21:56:26.636Z,68.11
2022-11-17T21:59:58.296Z,68.02
2022-11-17T22:03:34.789Z,68.22
2022-11-17T22:07:01.754Z,68.02
2022-11-17T22:10:32.081Z,68.04
2022-11-17T22:14:02.078Z,68.25
2022-11-17T22:17:31.674Z,68.23
2022-11-17T22:20:59.485Z,68.12
2022-11-17T22:24:28.465Z,68.32
2022-11-17T22:27:58.267Z,68.20
2022-11-17T22:31:29.578Z,68.35
2022-11-17T22:35:01.959Z,68.67
2022-11-17T22:38:30.289Z,68.64
2022-11-17T22:41:59.103Z,68.71
2022-11-17T22:45:26.629Z,68.71
2022-11-17T22:48:54.855Z,68.71
2022-11-17T22:52:22.941Z,68.60
2022-11-17T22:55:49.737Z,68.69
2022-11-17T22:59:16.859Z,68.45
2022-11-17T23:02:43.658Z,68.52
2022-11-17T23:06:11.635Z,68.58
2022-11-17T23:09:41.032Z,68.60
2022-11-17T23:13:10.136Z,68.36
2022-11-17T23:16:39.877Z,68.47
2022-11-17T23:20:08.027Z,68.49
2022-11-17T23:23:39.970Z,68.51
2022-11-17T23:27:09.792Z,68.65
2022-11-17T23:30:36.843Z,68.44
2022-11-17T23:34:03.689Z,68.54
2022-11-17T23:37:30.885Z,68.55
2022-11-17T23:41:02.760Z,68.63
2022-11-17T23:44:29.733Z,68.68
2022-11-17T23:47:56.762Z,68.67
2022-11-17T23:51:25.814Z,68.89
2022-11-17T23:54:53.209Z,68.93
2022-11-17T23:58:20.467Z,68.97
